sensor_id;sensor_type;location;lat;lon;timestamp;temperature;humidity
48454;DHT22;34261;55.678;12.464;2023-06-22T00:00:29;18.60;99.90
48454;DHT22;34261;55.678;12.464;2023-06-22T00:02:55;18.60;99.90
48454;DHT22;34261;55.678;12.464;2023-06-22T00:05:20;18.60;99.90
48454;DHT22;34261;55.678;12.464;2023-06-22T00:07:45;18.50;99.90
48454;DHT22;34261;55.678;12.464;2023-06-22T00:10:11;18.50;99.90
48454;DHT22;34261;55.678;12.464;2023-06-22T00:12:37;18.50;99.90
48454;DHT22;34261;55.678;12.464;2023-06-22T00:15:02;18.50;99.90
48454;DHT22;34261;55.678;12.464;2023-06-22T00:17:28;18.50;99.90
48454;DHT22;34261;55.678;12.464;2023-06-22T00:19:53;18.50;99.90
48454;DHT22;34261;55.678;12.464;2023-06-22T00:22:20;18.40;99.90
48454;DHT22;34261;55.678;12.464;2023-06-22T00:24:54;18.40;99.90
48454;DHT22;34261;55.678;12.464;2023-06-22T00:27:20;18.40;99.90
48454;DHT22;34261;55.678;12.464;2023-06-22T00:29:45;18.40;99.90
48454;DHT22;34261;55.678;12.464;2023-06-22T00:32:11;18.30;99.90
48454;DHT22;34261;55.678;12.464;2023-06-22T00:34:36;18.30;99.90
48454;DHT22;34261;55.678;12.464;2023-06-22T00:37:02;18.30;99.90
48454;DHT22;34261;55.678;12.464;2023-06-22T00:39:27;18.30;99.90
48454;DHT22;34261;55.678;12.464;2023-06-22T00:41:53;18.30;99.90
48454;DHT22;34261;55.678;12.464;2023-06-22T00:44:18;18.30;99.90
48454;DHT22;34261;55.678;12.464;2023-06-22T00:46:44;18.30;99.90
48454;DHT22;34261;55.678;12.464;2023-06-22T00:49:09;18.30;99.90
48454;DHT22;34261;55.678;12.464;2023-06-22T00:51:35;18.20;99.90
48454;DHT22;34261;55.678;12.464;2023-06-22T00:54:03;18.10;99.90
48454;DHT22;34261;55.678;12.464;2023-06-22T00:56:32;18.20;99.90
48454;DHT22;34261;55.678;12.464;2023-06-22T00:59:01;18.20;99.90
48454;DHT22;34261;55.678;12.464;2023-06-22T01:01:30;18.10;99.90
48454;DHT22;34261;55.678;12.464;2023-06-22T01:04:06;18.10;99.90
48454;DHT22;34261;55.678;12.464;2023-06-22T01:06:34;18.00;99.90
48454;DHT22;34261;55.678;12.464;2023-06-22T01:09:15;18.00;99.90
48454;DHT22;34261;55.678;12.464;2023-06-22T01:11:54;18.00;99.90
48454;DHT22;34261;55.678;12.464;2023-06-22T01:16:51;17.90;99.90
48454;DHT22;34261;55.678;12.464;2023-06-22T01:19:35;18.00;99.90
48454;DHT22;34261;55.678;12.464;2023-06-22T01:22:01;17.90;99.90
48454;DHT22;34261;55.678;12.464;2023-06-22T01:24:30;17.90;99.90
48454;DHT22;34261;55.678;12.464;2023-06-22T01:27:00;17.90;99.90
48454;DHT22;34261;55.678;12.464;2023-06-22T01:29:30;17.90;99.90
48454;DHT22;34261;55.678;12.464;2023-06-22T01:31:57;17.90;99.90
48454;DHT22;34261;55.678;12.464;2023-06-22T01:34:24;17.80;99.90
48454;DHT22;34261;55.678;12.464;2023-06-22T01:36:50;17.80;99.90
48454;DHT22;34261;55.678;12.464;2023-06-22T01:39:16;17.80;99.90
48454;DHT22;34261;55.678;12.464;2023-06-22T01:41:43;17.80;99.90
48454;DHT22;34261;55.678;12.464;2023-06-22T01:44:08;17.80;99.90
48454;DHT22;34261;55.678;12.464;2023-06-22T01:46:34;17.80;99.90
48454;DHT22;34261;55.678;12.464;2023-06-22T01:49:02;17.70;99.90
48454;DHT22;34261;55.678;12.464;2023-06-22T01:51:27;17.70;99.90
48454;DHT22;34261;55.678;12.464;2023-06-22T01:53:56;17.60;99.90
48454;DHT22;34261;55.678;12.464;2023-06-22T01:56:21;17.60;99.90
48454;DHT22;34261;55.678;12.464;2023-06-22T01:58:49;17.60;99.90
48454;DHT22;34261;55.678;12.464;2023-06-22T02:01:17;17.60;99.90
48454;DHT22;34261;55.678;12.464;2023-06-22T02:03:46;17.60;99.90
48454;DHT22;34261;55.678;12.464;2023-06-22T02:06:17;17.60;99.90
48454;DHT22;34261;55.678;12.464;2023-06-22T02:08:46;17.60;99.90
48454;DHT22;34261;55.678;12.464;2023-06-22T02:11:13;17.60;99.90
48454;DHT22;34261;55.678;12.464;2023-06-22T02:13:40;17.60;99.90
48454;DHT22;34261;55.678;12.464;2023-06-22T02:16:11;17.60;99.90
48454;DHT22;34261;55.678;12.464;2023-06-22T02:18:37;17.60;99.90
48454;DHT22;34261;55.678;12.464;2023-06-22T02:21:02;17.60;99.90
48454;DHT22;34261;55.678;12.464;2023-06-22T02:23:28;17.50;99.90
48454;DHT22;34261;55.678;12.464;2023-06-22T02:25:53;17.50;99.90
48454;DHT22;34261;55.678;12.464;2023-06-22T02:28:19;17.60;99.90
48454;DHT22;34261;55.678;12.464;2023-06-22T02:30:46;17.60;99.90
48454;DHT22;34261;55.678;12.464;2023-06-22T02:33:11;17.50;99.90
48454;DHT22;34261;55.678;12.464;2023-06-22T02:35:37;17.50;99.90
48454;DHT22;34261;55.678;12.464;2023-06-22T02:38:03;17.50;99.90
48454;DHT22;34261;55.678;12.464;2023-06-22T02:40:29;17.50;99.90
48454;DHT22;34261;55.678;12.464;2023-06-22T02:42:54;17.50;99.90
48454;DHT22;34261;55.678;12.464;2023-06-22T02:45:20;17.50;99.90
48454;DHT22;34261;55.678;12.464;2023-06-22T02:47:45;17.50;99.90
48454;DHT22;34261;55.678;12.464;2023-06-22T02:50:13;17.50;99.90
48454;DHT22;34261;55.678;12.464;2023-06-22T02:52:38;17.50;99.90
48454;DHT22;34261;55.678;12.464;2023-06-22T02:55:04;17.40;99.90
48454;DHT22;34261;55.678;12.464;2023-06-22T02:57:30;17.40;99.90
48454;DHT22;34261;55.678;12.464;2023-06-22T02:59:57;17.30;99.90
48454;DHT22;34261;55.678;12.464;2023-06-22T03:02:22;17.30;99.90
48454;DHT22;34261;55.678;12.464;2023-06-22T03:04:49;17.30;99.90
48454;DHT22;34261;55.678;12.464;2023-06-22T03:07:14;17.30;99.90
48454;DHT22;34261;55.678;12.464;2023-06-22T03:09:43;17.40;99.90
48454;DHT22;34261;55.678;12.464;2023-06-22T03:12:08;17.30;99.90
48454;DHT22;34261;55.678;12.464;2023-06-22T03:14:34;17.40;99.90
48454;DHT22;34261;55.678;12.464;2023-06-22T03:16:59;17.30;99.90
48454;DHT22;34261;55.678;12.464;2023-06-22T03:19:28;17.30;99.90
48454;DHT22;34261;55.678;12.464;2023-06-22T03:21:55;17.40;99.90
48454;DHT22;34261;55.678;12.464;2023-06-22T03:24:20;17.40;99.90
48454;DHT22;34261;55.678;12.464;2023-06-22T03:26:47;17.40;99.90
48454;DHT22;34261;55.678;12.464;2023-06-22T03:29:14;17.40;99.90
48454;DHT22;34261;55.678;12.464;2023-06-22T03:31:40;17.40;99.90
48454;DHT22;34261;55.678;12.464;2023-06-22T03:34:06;17.40;99.90
48454;DHT22;34261;55.678;12.464;2023-06-22T03:36:31;17.50;99.90
48454;DHT22;34261;55.678;12.464;2023-06-22T03:38:57;17.50;99.90
48454;DHT22;34261;55.678;12.464;2023-06-22T03:41:22;17.40;99.90
48454;DHT22;34261;55.678;12.464;2023-06-22T03:43:49;17.50;99.90
48454;DHT22;34261;55.678;12.464;2023-06-22T03:46:15;17.50;99.90
48454;DHT22;34261;55.678;12.464;2023-06-22T03:48:41;17.60;99.90
48454;DHT22;34261;55.678;12.464;2023-06-22T03:51:08;17.60;99.90
48454;DHT22;34261;55.678;12.464;2023-06-22T03:53:33;17.70;99.90
48454;DHT22;34261;55.678;12.464;2023-06-22T03:55:59;17.70;99.90
48454;DHT22;34261;55.678;12.464;2023-06-22T03:58:26;17.80;99.90
48454;DHT22;34261;55.678;12.464;2023-06-22T04:00:52;17.90;99.90
48454;DHT22;34261;55.678;12.464;2023-06-22T04:03:18;18.00;99.90
48454;DHT22;34261;55.678;12.464;2023-06-22T04:05:44;18.00;99.90
48454;DHT22;34261;55.678;12.464;2023-06-22T04:08:13;18.10;99.90
48454;DHT22;34261;55.678;12.464;2023-06-22T04:10:38;18.10;99.90
48454;DHT22;34261;55.678;12.464;2023-06-22T04:13:04;18.20;99.90
48454;DHT22;34261;55.678;12.464;2023-06-22T04:15:31;18.20;99.90
48454;DHT22;34261;55.678;12.464;2023-06-22T04:17:56;18.20;99.90
48454;DHT22;34261;55.678;12.464;2023-06-22T04:20:22;18.20;99.90
48454;DHT22;34261;55.678;12.464;2023-06-22T04:22:51;18.20;99.90
48454;DHT22;34261;55.678;12.464;2023-06-22T04:25:17;18.20;99.90
48454;DHT22;34261;55.678;12.464;2023-06-22T04:27:43;18.20;99.90
48454;DHT22;34261;55.678;12.464;2023-06-22T04:30:08;18.20;99.90
48454;DHT22;34261;55.678;12.464;2023-06-22T04:32:35;18.30;99.90
48454;DHT22;34261;55.678;12.464;2023-06-22T04:35:02;18.30;99.90
48454;DHT22;34261;55.678;12.464;2023-06-22T04:37:27;18.40;99.90
48454;DHT22;34261;55.678;12.464;2023-06-22T04:39:53;18.40;99.90
48454;DHT22;34261;55.678;12.464;2023-06-22T04:42:18;18.40;99.90
48454;DHT22;34261;55.678;12.464;2023-06-22T04:44:43;18.30;99.90
48454;DHT22;34261;55.678;12.464;2023-06-22T04:47:09;18.40;99.90
48454;DHT22;34261;55.678;12.464;2023-06-22T04:49:35;18.40;99.90
48454;DHT22;34261;55.678;12.464;2023-06-22T04:52:10;18.50;99.90
48454;DHT22;34261;55.678;12.464;2023-06-22T04:54:36;18.60;99.90
48454;DHT22;34261;55.678;12.464;2023-06-22T04:57:02;18.70;99.90
48454;DHT22;34261;55.678;12.464;2023-06-22T04:59:29;18.80;99.90
48454;DHT22;34261;55.678;12.464;2023-06-22T05:01:55;18.90;99.90
48454;DHT22;34261;55.678;12.464;2023-06-22T05:04:22;18.90;99.90
48454;DHT22;34261;55.678;12.464;2023-06-22T05:06:48;18.90;99.90
48454;DHT22;34261;55.678;12.464;2023-06-22T05:09:15;18.90;99.90
48454;DHT22;34261;55.678;12.464;2023-06-22T05:11:40;18.90;99.90
48454;DHT22;34261;55.678;12.464;2023-06-22T05:14:06;18.90;99.90
48454;DHT22;34261;55.678;12.464;2023-06-22T05:16:32;18.90;99.90
48454;DHT22;34261;55.678;12.464;2023-06-22T05:18:58;18.90;99.90
48454;DHT22;34261;55.678;12.464;2023-06-22T05:21:24;19.00;99.90
48454;DHT22;34261;55.678;12.464;2023-06-22T05:23:50;19.00;99.90
48454;DHT22;34261;55.678;12.464;2023-06-22T05:26:15;19.00;99.90
48454;DHT22;34261;55.678;12.464;2023-06-22T05:28:42;19.10;99.90
48454;DHT22;34261;55.678;12.464;2023-06-22T05:31:11;19.10;99.90
48454;DHT22;34261;55.678;12.464;2023-06-22T05:33:37;19.10;99.90
48454;DHT22;34261;55.678;12.464;2023-06-22T05:36:02;19.20;99.90
48454;DHT22;34261;55.678;12.464;2023-06-22T05:38:28;19.30;99.90
48454;DHT22;34261;55.678;12.464;2023-06-22T05:40:53;19.40;99.90
48454;DHT22;34261;55.678;12.464;2023-06-22T05:43:24;19.50;99.90
48454;DHT22;34261;55.678;12.464;2023-06-22T05:45:53;19.50;99.90
48454;DHT22;34261;55.678;12.464;2023-06-22T05:48:18;19.60;99.90
48454;DHT22;34261;55.678;12.464;2023-06-22T05:50:44;19.60;99.90
48454;DHT22;34261;55.678;12.464;2023-06-22T05:53:09;19.60;99.90
48454;DHT22;34261;55.678;12.464;2023-06-22T05:55:34;19.60;99.90
48454;DHT22;34261;55.678;12.464;2023-06-22T05:58:00;19.70;99.90
48454;DHT22;34261;55.678;12.464;2023-06-22T06:00:25;19.90;99.90
48454;DHT22;34261;55.678;12.464;2023-06-22T06:02:51;20.00;99.90
48454;DHT22;34261;55.678;12.464;2023-06-22T06:05:16;20.10;99.90
48454;DHT22;34261;55.678;12.464;2023-06-22T06:07:42;20.00;99.90
48454;DHT22;34261;55.678;12.464;2023-06-22T06:10:09;20.00;99.90
48454;DHT22;34261;55.678;12.464;2023-06-22T06:12:34;20.10;99.90
48454;DHT22;34261;55.678;12.464;2023-06-22T06:15:00;20.10;99.90
48454;DHT22;34261;55.678;12.464;2023-06-22T06:17:26;20.20;99.90
48454;DHT22;34261;55.678;12.464;2023-06-22T06:19:51;20.30;99.90
48454;DHT22;34261;55.678;12.464;2023-06-22T06:22:16;20.40;99.90
48454;DHT22;34261;55.678;12.464;2023-06-22T06:24:44;20.30;99.90
48454;DHT22;34261;55.678;12.464;2023-06-22T06:27:09;20.50;99.90
48454;DHT22;34261;55.678;12.464;2023-06-22T06:29:34;20.60;99.90
48454;DHT22;34261;55.678;12.464;2023-06-22T06:32:00;20.70;99.90
48454;DHT22;34261;55.678;12.464;2023-06-22T06:34:25;20.80;99.90
48454;DHT22;34261;55.678;12.464;2023-06-22T06:36:51;20.80;99.90
48454;DHT22;34261;55.678;12.464;2023-06-22T06:39:16;20.80;99.90
48454;DHT22;34261;55.678;12.464;2023-06-22T06:41:42;20.80;99.90
48454;DHT22;34261;55.678;12.464;2023-06-22T06:44:07;20.90;99.90
48454;DHT22;34261;55.678;12.464;2023-06-22T06:46:33;21.00;99.90
48454;DHT22;34261;55.678;12.464;2023-06-22T06:48:58;21.20;99.90
48454;DHT22;34261;55.678;12.464;2023-06-22T06:51:24;21.20;99.90
48454;DHT22;34261;55.678;12.464;2023-06-22T06:53:49;21.20;99.90
48454;DHT22;34261;55.678;12.464;2023-06-22T06:56:14;21.40;99.90
48454;DHT22;34261;55.678;12.464;2023-06-22T06:58:41;21.50;99.90
48454;DHT22;34261;55.678;12.464;2023-06-22T07:01:07;21.50;99.90
48454;DHT22;34261;55.678;12.464;2023-06-22T07:03:32;21.70;99.90
48454;DHT22;34261;55.678;12.464;2023-06-22T07:05:58;21.80;99.90
48454;DHT22;34261;55.678;12.464;2023-06-22T07:08:24;21.80;99.90
48454;DHT22;34261;55.678;12.464;2023-06-22T07:10:49;21.90;99.90
48454;DHT22;34261;55.678;12.464;2023-06-22T07:13:15;21.80;99.90
48454;DHT22;34261;55.678;12.464;2023-06-22T07:15:40;21.90;99.90
48454;DHT22;34261;55.678;12.464;2023-06-22T07:18:06;21.90;99.90
48454;DHT22;34261;55.678;12.464;2023-06-22T07:20:31;21.90;99.90
48454;DHT22;34261;55.678;12.464;2023-06-22T07:22:57;21.70;99.90
48454;DHT22;34261;55.678;12.464;2023-06-22T07:25:23;21.70;99.90
48454;DHT22;34261;55.678;12.464;2023-06-22T07:28:02;21.80;99.90
48454;DHT22;34261;55.678;12.464;2023-06-22T07:30:28;22.00;99.90
48454;DHT22;34261;55.678;12.464;2023-06-22T07:32:54;22.10;99.90
48454;DHT22;34261;55.678;12.464;2023-06-22T07:35:19;22.20;99.90
48454;DHT22;34261;55.678;12.464;2023-06-22T07:37:45;22.30;99.90
48454;DHT22;34261;55.678;12.464;2023-06-22T07:40:11;22.20;99.90
48454;DHT22;34261;55.678;12.464;2023-06-22T07:42:36;22.30;99.90
48454;DHT22;34261;55.678;12.464;2023-06-22T07:45:05;22.50;99.90
48454;DHT22;34261;55.678;12.464;2023-06-22T07:47:33;22.50;99.90
48454;DHT22;34261;55.678;12.464;2023-06-22T07:50:00;22.50;99.90
48454;DHT22;34261;55.678;12.464;2023-06-22T07:52:26;22.60;99.90
48454;DHT22;34261;55.678;12.464;2023-06-22T07:54:52;22.80;99.90
48454;DHT22;34261;55.678;12.464;2023-06-22T07:57:18;22.80;99.90
48454;DHT22;34261;55.678;12.464;2023-06-22T07:59:44;22.80;99.90
48454;DHT22;34261;55.678;12.464;2023-06-22T08:02:09;22.90;99.90
48454;DHT22;34261;55.678;12.464;2023-06-22T08:04:35;23.10;99.90
48454;DHT22;34261;55.678;12.464;2023-06-22T08:07:01;23.20;99.90
48454;DHT22;34261;55.678;12.464;2023-06-22T08:09:30;23.30;99.90
48454;DHT22;34261;55.678;12.464;2023-06-22T08:11:55;23.30;99.90
48454;DHT22;34261;55.678;12.464;2023-06-22T08:14:22;23.30;99.90
48454;DHT22;34261;55.678;12.464;2023-06-22T08:16:48;23.50;99.90
48454;DHT22;34261;55.678;12.464;2023-06-22T08:19:13;23.60;99.90
48454;DHT22;34261;55.678;12.464;2023-06-22T08:21:39;23.90;99.90
48454;DHT22;34261;55.678;12.464;2023-06-22T08:24:04;24.20;99.90
48454;DHT22;34261;55.678;12.464;2023-06-22T08:26:30;24.40;99.90
48454;DHT22;34261;55.678;12.464;2023-06-22T08:28:55;24.40;99.80
48454;DHT22;34261;55.678;12.464;2023-06-22T08:31:21;24.50;99.10
48454;DHT22;34261;55.678;12.464;2023-06-22T08:33:46;24.50;99.90
48454;DHT22;34261;55.678;12.464;2023-06-22T08:36:12;24.70;99.90
48454;DHT22;34261;55.678;12.464;2023-06-22T08:38:38;24.70;99.30
48454;DHT22;34261;55.678;12.464;2023-06-22T08:41:04;24.80;99.20
48454;DHT22;34261;55.678;12.464;2023-06-22T08:43:29;24.90;98.50
48454;DHT22;34261;55.678;12.464;2023-06-22T08:45:55;25.00;98.70
48454;DHT22;34261;55.678;12.464;2023-06-22T08:48:20;25.00;98.40
48454;DHT22;34261;55.678;12.464;2023-06-22T08:50:46;24.80;97.70
48454;DHT22;34261;55.678;12.464;2023-06-22T08:53:11;24.70;98.30
48454;DHT22;34261;55.678;12.464;2023-06-22T08:55:37;24.90;98.50
48454;DHT22;34261;55.678;12.464;2023-06-22T08:58:02;25.00;98.50
48454;DHT22;34261;55.678;12.464;2023-06-22T09:00:29;25.20;98.80
48454;DHT22;34261;55.678;12.464;2023-06-22T09:02:57;25.30;98.00
48454;DHT22;34261;55.678;12.464;2023-06-22T09:05:24;25.50;97.40
48454;DHT22;34261;55.678;12.464;2023-06-22T09:07:51;25.30;96.90
48454;DHT22;34261;55.678;12.464;2023-06-22T09:10:16;25.50;97.60
48454;DHT22;34261;55.678;12.464;2023-06-22T09:12:42;25.60;97.00
48454;DHT22;34261;55.678;12.464;2023-06-22T09:15:07;25.60;95.70
48454;DHT22;34261;55.678;12.464;2023-06-22T09:17:33;25.70;95.70
48454;DHT22;34261;55.678;12.464;2023-06-22T09:19:59;25.80;95.90
48454;DHT22;34261;55.678;12.464;2023-06-22T09:22:25;26.00;95.80
48454;DHT22;34261;55.678;12.464;2023-06-22T09:24:54;26.10;95.70
48454;DHT22;34261;55.678;12.464;2023-06-22T09:27:20;26.30;95.50
48454;DHT22;34261;55.678;12.464;2023-06-22T09:29:45;26.10;94.60
48454;DHT22;34261;55.678;12.464;2023-06-22T09:32:11;25.80;94.80
48454;DHT22;34261;55.678;12.464;2023-06-22T09:34:36;25.80;94.20
48454;DHT22;34261;55.678;12.464;2023-06-22T09:37:02;25.90;93.90
48454;DHT22;34261;55.678;12.464;2023-06-22T09:39:27;25.90;94.70
48454;DHT22;34261;55.678;12.464;2023-06-22T09:41:53;26.10;94.70
48454;DHT22;34261;55.678;12.464;2023-06-22T09:44:18;26.20;94.60
48454;DHT22;34261;55.678;12.464;2023-06-22T09:46:44;26.30;93.80
48454;DHT22;34261;55.678;12.464;2023-06-22T09:49:09;26.60;93.70
48454;DHT22;34261;55.678;12.464;2023-06-22T09:51:34;26.60;94.10
48454;DHT22;34261;55.678;12.464;2023-06-22T09:54:00;26.60;94.60
48454;DHT22;34261;55.678;12.464;2023-06-22T09:56:25;26.70;94.60
48454;DHT22;34261;55.678;12.464;2023-06-22T09:58:53;26.80;92.00
48454;DHT22;34261;55.678;12.464;2023-06-22T10:01:19;27.10;92.10
48454;DHT22;34261;55.678;12.464;2023-06-22T10:03:46;27.30;92.60
48454;DHT22;34261;55.678;12.464;2023-06-22T10:06:11;27.60;91.90
48454;DHT22;34261;55.678;12.464;2023-06-22T10:08:37;27.70;92.20
48454;DHT22;34261;55.678;12.464;2023-06-22T10:11:03;27.70;91.80
48454;DHT22;34261;55.678;12.464;2023-06-22T10:13:28;27.90;91.80
48454;DHT22;34261;55.678;12.464;2023-06-22T10:15:54;28.00;91.00
48454;DHT22;34261;55.678;12.464;2023-06-22T10:18:19;28.10;90.30
48454;DHT22;34261;55.678;12.464;2023-06-22T10:20:46;28.20;90.10
48454;DHT22;34261;55.678;12.464;2023-06-22T10:23:12;28.10;90.90
48454;DHT22;34261;55.678;12.464;2023-06-22T10:25:37;28.10;90.90
48454;DHT22;34261;55.678;12.464;2023-06-22T10:28:03;28.00;90.90
48454;DHT22;34261;55.678;12.464;2023-06-22T10:30:28;27.90;90.30
48454;DHT22;34261;55.678;12.464;2023-06-22T10:32:54;28.00;90.50
48454;DHT22;34261;55.678;12.464;2023-06-22T10:35:20;28.00;90.10
48454;DHT22;34261;55.678;12.464;2023-06-22T10:37:45;28.30;89.90
48454;DHT22;34261;55.678;12.464;2023-06-22T10:40:15;28.50;88.90
48454;DHT22;34261;55.678;12.464;2023-06-22T10:42:41;28.40;90.00
48454;DHT22;34261;55.678;12.464;2023-06-22T10:45:06;28.50;88.50
48454;DHT22;34261;55.678;12.464;2023-06-22T10:47:33;28.60;88.50
48454;DHT22;34261;55.678;12.464;2023-06-22T10:49:58;28.50;89.20
48454;DHT22;34261;55.678;12.464;2023-06-22T10:52:24;28.50;89.70
48454;DHT22;34261;55.678;12.464;2023-06-22T10:54:49;28.90;90.10
48454;DHT22;34261;55.678;12.464;2023-06-22T10:57:15;29.10;86.70
48454;DHT22;34261;55.678;12.464;2023-06-22T10:59:40;29.30;85.10
48454;DHT22;34261;55.678;12.464;2023-06-22T11:02:05;29.50;86.10
48454;DHT22;34261;55.678;12.464;2023-06-22T11:04:31;29.70;84.70
48454;DHT22;34261;55.678;12.464;2023-06-22T11:06:56;29.90;84.90
48454;DHT22;34261;55.678;12.464;2023-06-22T11:09:22;30.10;81.90
48454;DHT22;34261;55.678;12.464;2023-06-22T11:11:47;30.30;83.00
48454;DHT22;34261;55.678;12.464;2023-06-22T11:14:13;30.20;80.80
48454;DHT22;34261;55.678;12.464;2023-06-22T11:16:39;30.20;81.70
48454;DHT22;34261;55.678;12.464;2023-06-22T11:19:04;30.30;81.70
48454;DHT22;34261;55.678;12.464;2023-06-22T11:21:30;30.00;80.80
48454;DHT22;34261;55.678;12.464;2023-06-22T11:23:56;30.00;81.40
48454;DHT22;34261;55.678;12.464;2023-06-22T11:26:21;30.20;82.50
48454;DHT22;34261;55.678;12.464;2023-06-22T11:28:47;30.40;83.50
48454;DHT22;34261;55.678;12.464;2023-06-22T11:31:12;30.70;81.30
48454;DHT22;34261;55.678;12.464;2023-06-22T11:33:38;31.00;80.90
48454;DHT22;34261;55.678;12.464;2023-06-22T11:36:03;31.00;79.90
48454;DHT22;34261;55.678;12.464;2023-06-22T11:38:29;31.10;78.30
48454;DHT22;34261;55.678;12.464;2023-06-22T11:40:57;31.00;79.70
48454;DHT22;34261;55.678;12.464;2023-06-22T11:43:22;31.20;81.20
48454;DHT22;34261;55.678;12.464;2023-06-22T11:45:47;31.50;78.80
48454;DHT22;34261;55.678;12.464;2023-06-22T11:48:13;31.20;78.00
48454;DHT22;34261;55.678;12.464;2023-06-22T11:50:38;31.40;78.40
48454;DHT22;34261;55.678;12.464;2023-06-22T11:53:04;31.40;76.70
48454;DHT22;34261;55.678;12.464;2023-06-22T11:55:29;31.40;76.30
48454;DHT22;34261;55.678;12.464;2023-06-22T11:57:55;31.40;75.70
48454;DHT22;34261;55.678;12.464;2023-06-22T12:00:21;31.30;77.10
48454;DHT22;34261;55.678;12.464;2023-06-22T12:02:49;31.40;78.60
48454;DHT22;34261;55.678;12.464;2023-06-22T12:05:16;31.20;76.60
48454;DHT22;34261;55.678;12.464;2023-06-22T12:07:42;31.60;77.10
48454;DHT22;34261;55.678;12.464;2023-06-22T12:10:07;31.50;76.00
48454;DHT22;34261;55.678;12.464;2023-06-22T12:12:33;31.30;76.90
48454;DHT22;34261;55.678;12.464;2023-06-22T12:14:58;31.20;78.10
48454;DHT22;34261;55.678;12.464;2023-06-22T12:17:28;31.30;78.50
48454;DHT22;34261;55.678;12.464;2023-06-22T12:19:53;31.70;77.80
48454;DHT22;34261;55.678;12.464;2023-06-22T12:22:19;31.50;75.60
48454;DHT22;34261;55.678;12.464;2023-06-22T12:24:44;31.50;74.90
48454;DHT22;34261;55.678;12.464;2023-06-22T12:27:10;31.70;75.70
48454;DHT22;34261;55.678;12.464;2023-06-22T12:29:35;31.80;75.30
48454;DHT22;34261;55.678;12.464;2023-06-22T12:32:00;32.20;75.00
48454;DHT22;34261;55.678;12.464;2023-06-22T12:34:26;32.20;75.00
48454;DHT22;34261;55.678;12.464;2023-06-22T12:36:51;32.40;74.80
48454;DHT22;34261;55.678;12.464;2023-06-22T12:39:20;32.10;73.80
48454;DHT22;34261;55.678;12.464;2023-06-22T12:41:45;32.10;74.80
48454;DHT22;34261;55.678;12.464;2023-06-22T12:44:10;32.20;75.30
48454;DHT22;34261;55.678;12.464;2023-06-22T12:46:36;32.50;74.00
48454;DHT22;34261;55.678;12.464;2023-06-22T12:49:03;32.40;73.50
48454;DHT22;34261;55.678;12.464;2023-06-22T12:51:29;32.40;73.50
48454;DHT22;34261;55.678;12.464;2023-06-22T12:53:55;32.20;74.10
48454;DHT22;34261;55.678;12.464;2023-06-22T12:56:20;31.90;74.30
48454;DHT22;34261;55.678;12.464;2023-06-22T12:58:46;32.00;75.20
48454;DHT22;34261;55.678;12.464;2023-06-22T13:01:11;32.30;74.80
48454;DHT22;34261;55.678;12.464;2023-06-22T13:03:37;32.40;72.20
48454;DHT22;34261;55.678;12.464;2023-06-22T13:06:02;32.40;72.00
48454;DHT22;34261;55.678;12.464;2023-06-22T13:08:29;32.10;72.50
48454;DHT22;34261;55.678;12.464;2023-06-22T13:10:54;31.90;73.00
48454;DHT22;34261;55.678;12.464;2023-06-22T13:13:23;31.70;73.40
48454;DHT22;34261;55.678;12.464;2023-06-22T13:15:50;31.60;72.90
48454;DHT22;34261;55.678;12.464;2023-06-22T13:18:15;31.40;74.40
48454;DHT22;34261;55.678;12.464;2023-06-22T13:20:41;31.50;75.30
48454;DHT22;34261;55.678;12.464;2023-06-22T13:23:06;31.60;74.00
48454;DHT22;34261;55.678;12.464;2023-06-22T13:25:32;31.30;75.70
48454;DHT22;34261;55.678;12.464;2023-06-22T13:27:57;31.30;75.50
48454;DHT22;34261;55.678;12.464;2023-06-22T13:30:22;31.30;74.80
48454;DHT22;34261;55.678;12.464;2023-06-22T13:32:48;31.20;74.70
48454;DHT22;34261;55.678;12.464;2023-06-22T13:35:13;31.50;75.10
48454;DHT22;34261;55.678;12.464;2023-06-22T13:37:39;31.30;76.10
48454;DHT22;34261;55.678;12.464;2023-06-22T13:40:05;32.10;77.00
48454;DHT22;34261;55.678;12.464;2023-06-22T13:42:32;32.70;76.10
48454;DHT22;34261;55.678;12.464;2023-06-22T13:44:57;32.50;73.50
48454;DHT22;34261;55.678;12.464;2023-06-22T13:47:23;32.10;72.90
48454;DHT22;34261;55.678;12.464;2023-06-22T13:49:48;31.70;73.80
48454;DHT22;34261;55.678;12.464;2023-06-22T13:52:14;31.40;73.50
48454;DHT22;34261;55.678;12.464;2023-06-22T13:54:39;31.20;72.90
48454;DHT22;34261;55.678;12.464;2023-06-22T13:57:05;31.30;74.30
48454;DHT22;34261;55.678;12.464;2023-06-22T13:59:30;31.80;75.70
48454;DHT22;34261;55.678;12.464;2023-06-22T14:01:56;32.20;75.70
48454;DHT22;34261;55.678;12.464;2023-06-22T14:04:25;32.50;74.90
48454;DHT22;34261;55.678;12.464;2023-06-22T14:06:50;32.80;74.50
48454;DHT22;34261;55.678;12.464;2023-06-22T14:09:16;33.30;74.30
48454;DHT22;34261;55.678;12.464;2023-06-22T14:11:41;32.90;73.40
48454;DHT22;34261;55.678;12.464;2023-06-22T14:14:07;33.10;75.50
48454;DHT22;34261;55.678;12.464;2023-06-22T14:16:32;33.10;73.30
48454;DHT22;34261;55.678;12.464;2023-06-22T14:18:57;32.90;74.70
48454;DHT22;34261;55.678;12.464;2023-06-22T14:21:23;33.40;73.80
48454;DHT22;34261;55.678;12.464;2023-06-22T14:23:48;34.00;71.20
48454;DHT22;34261;55.678;12.464;2023-06-22T14:26:17;34.00;71.40
48454;DHT22;34261;55.678;12.464;2023-06-22T14:28:46;33.70;70.60
48454;DHT22;34261;55.678;12.464;2023-06-22T14:31:17;33.50;70.30
48454;DHT22;34261;55.678;12.464;2023-06-22T14:33:45;33.50;71.30
48454;DHT22;34261;55.678;12.464;2023-06-22T14:36:10;33.30;70.90
48454;DHT22;34261;55.678;12.464;2023-06-22T14:38:36;33.10;70.70
48454;DHT22;34261;55.678;12.464;2023-06-22T14:41:01;32.80;69.40
48454;DHT22;34261;55.678;12.464;2023-06-22T14:43:27;32.40;71.00
48454;DHT22;34261;55.678;12.464;2023-06-22T14:45:52;32.40;70.60
48454;DHT22;34261;55.678;12.464;2023-06-22T14:48:18;32.70;70.90
48454;DHT22;34261;55.678;12.464;2023-06-22T14:50:43;32.90;71.00
48454;DHT22;34261;55.678;12.464;2023-06-22T14:53:08;33.00;71.10
48454;DHT22;34261;55.678;12.464;2023-06-22T14:55:34;33.10;71.50
48454;DHT22;34261;55.678;12.464;2023-06-22T14:57:59;32.90;71.00
48454;DHT22;34261;55.678;12.464;2023-06-22T15:00:25;32.80;69.70
48454;DHT22;34261;55.678;12.464;2023-06-22T15:02:50;32.50;70.10
48454;DHT22;34261;55.678;12.464;2023-06-22T15:05:16;32.40;70.90
48454;DHT22;34261;55.678;12.464;2023-06-22T15:07:42;32.30;70.00
48454;DHT22;34261;55.678;12.464;2023-06-22T15:10:08;32.50;70.80